<?xml version="1.0" encoding="UTF-8" standalone="no" ?>
<gpx xmlns="http://www.topografix.com/GPX/1/1" creator="CompeGPS" version="1.1" xmlns:xsi="http://www.w3.org/2001/XMLSchema-instance" xsi:schemaLocation="http://www.topografix.com/GPX/1/1 http://www.topografix.com/GPX/1/1/gpx.xsd http://www.garmin.com/xmlschemas/GpxExtensions/v3 http://www.garmin.com/xmlschemas/GpxExtensionsv3.xsd http://www.garmin.com/xmlschemas/TrackPointExtension/v1 http://www.garmin.com/xmlschemas/TrackPointExtensionv1.xsd" xmlns:gpxtpx="http://www.garmin.com/xmlschemas/TrackPointExtension/v1">
  <metadata>
    <link href="http://www.compegps.com">
      <text>CompeGPS TEAM, SL</text>
    </link>
    <time>2014-02-11T15:08:02Z</time>
    <bounds maxlat="43.540027" maxlon="1.461167" minlat="43.532808" minlon="1.453823"/>
  </metadata>
<wpt lat="43.539506" lon="1.455524">
  <ele>250</ele>
  <name>Tour Telecom</name>
</wpt>
<wpt lat="43.532808" lon="1.461141">
  <ele>170</ele>
  <name>Coustalas</name>
</wpt>
<trk>
    <name>Boucle des Abeilles</name>
    <trkseg>
      <trkpt lat="43.539506" lon="1.455524">
        <ele>252.8</ele>
        <time>2014-02-11T12:42:39Z</time>
      </trkpt>
      <trkpt lat="43.539447" lon="1.455464">
        <ele>250.7</ele>
        <time>2014-02-11T12:43:34Z</time>
      </trkpt>
      <trkpt lat="43.539369" lon="1.455536">
        <ele>249.7</ele>
        <time>2014-02-11T12:43:52Z</time>
      </trkpt>
      <trkpt lat="43.539326" lon="1.455656">
        <ele>249.7</ele>
        <time>2014-02-11T12:44:09Z</time>
      </trkpt>
      <trkpt lat="43.539236" lon="1.455703">
        <ele>249.5</ele>
        <time>2014-02-11T12:44:36Z</time>
      </trkpt>
      <trkpt lat="43.539158" lon="1.455796">
        <ele>249.3</ele>
        <time>2014-02-11T12:45:00Z</time>
      </trkpt>
      <trkpt lat="43.539115" lon="1.455899">
        <ele>248.5</ele>
        <time>2014-02-11T12:45:19Z</time>
      </trkpt>
      <trkpt lat="43.538994" lon="1.456032">
        <ele>247.9</ele>
        <time>2014-02-11T12:45:48Z</time>
      </trkpt>
      <trkpt lat="43.538897" lon="1.456143">
        <ele>247.3</ele>
        <time>2014-02-11T12:46:07Z</time>
      </trkpt>
      <trkpt lat="43.538895" lon="1.456138">
        <ele>246.4</ele>
        <time>2014-02-11T12:46:51Z</time>
      </trkpt>
      <trkpt lat="43.538870" lon="1.456128">
        <ele>246.0</ele>
        <time>2014-02-11T12:47:22Z</time>
      </trkpt>
      <trkpt lat="43.538762" lon="1.456220">
        <ele>245.4</ele>
        <time>2014-02-11T12:47:56Z</time>
      </trkpt>
      <trkpt lat="43.538655" lon="1.456334">
        <ele>244.3</ele>
        <time>2014-02-11T12:48:12Z</time>
      </trkpt>
      <trkpt lat="43.538554" lon="1.456433">
        <ele>243.4</ele>
        <time>2014-02-11T12:48:26Z</time>
      </trkpt>
      <trkpt lat="43.538478" lon="1.456528">
        <ele>242.9</ele>
        <time>2014-02-11T12:48:41Z</time>
      </trkpt>
      <trkpt lat="43.538405" lon="1.456619">
        <ele>242.7</ele>
        <time>2014-02-11T12:48:58Z</time>
      </trkpt>
      <trkpt lat="43.538310" lon="1.456711">
        <ele>242.1</ele>
        <time>2014-02-11T12:49:14Z</time>
      </trkpt>
      <trkpt lat="43.538190" lon="1.456824">
        <ele>241.7</ele>
        <time>2014-02-11T12:49:31Z</time>
      </trkpt>
      <trkpt lat="43.538087" lon="1.456928">
        <ele>241.0</ele>
        <time>2014-02-11T12:49:51Z</time>
      </trkpt>
      <trkpt lat="43.537975" lon="1.457038">
        <ele>240.7</ele>
        <time>2014-02-11T12:50:07Z</time>
      </trkpt>
      <trkpt lat="43.537873" lon="1.457140">
        <ele>240.6</ele>
        <time>2014-02-11T12:50:24Z</time>
      </trkpt>
      <trkpt lat="43.537784" lon="1.457252">
        <ele>240.4</ele>
        <time>2014-02-11T12:50:38Z</time>
      </trkpt>
      <trkpt lat="43.537676" lon="1.457342">
        <ele>240.1</ele>
        <time>2014-02-11T12:50:52Z</time>
      </trkpt>
      <trkpt lat="43.537550" lon="1.457469">
        <ele>239.3</ele>
        <time>2014-02-11T12:51:09Z</time>
      </trkpt>
      <trkpt lat="43.537441" lon="1.457578">
        <ele>238.4</ele>
        <time>2014-02-11T12:51:26Z</time>
      </trkpt>
      <trkpt lat="43.537322" lon="1.457671">
        <ele>237.5</ele>
        <time>2014-02-11T12:51:40Z</time>
      </trkpt>
      <trkpt lat="43.537218" lon="1.457786">
        <ele>236.7</ele>
        <time>2014-02-11T12:51:52Z</time>
      </trkpt>
      <trkpt lat="43.537151" lon="1.457869">
        <ele>237.6</ele>
        <time>2014-02-11T12:52:12Z</time>
      </trkpt>
      <trkpt lat="43.537030" lon="1.457962">
        <ele>236.8</ele>
        <time>2014-02-11T12:52:35Z</time>
      </trkpt>
      <trkpt lat="43.536910" lon="1.458019">
        <ele>236.2</ele>
        <time>2014-02-11T12:52:59Z</time>
      </trkpt>
      <trkpt lat="43.536768" lon="1.458080">
        <ele>234.9</ele>
        <time>2014-02-11T12:53:13Z</time>
      </trkpt>
      <trkpt lat="43.536630" lon="1.458174">
        <ele>233.6</ele>
        <time>2014-02-11T12:53:29Z</time>
      </trkpt>
      <trkpt lat="43.536510" lon="1.458244">
        <ele>232.3</ele>
        <time>2014-02-11T12:53:43Z</time>
      </trkpt>
      <trkpt lat="43.536393" lon="1.458346">
        <ele>231.2</ele>
        <time>2014-02-11T12:54:01Z</time>
      </trkpt>
      <trkpt lat="43.536263" lon="1.458413">
        <ele>230.0</ele>
        <time>2014-02-11T12:54:17Z</time>
      </trkpt>
      <trkpt lat="43.536140" lon="1.458472">
        <ele>228.7</ele>
        <time>2014-02-11T12:54:31Z</time>
      </trkpt>
      <trkpt lat="43.536013" lon="1.458573">
        <ele>227.0</ele>
        <time>2014-02-11T12:54:46Z</time>
      </trkpt>
      <trkpt lat="43.535898" lon="1.458632">
        <ele>225.5</ele>
        <time>2014-02-11T12:54:59Z</time>
      </trkpt>
      <trkpt lat="43.535764" lon="1.458724">
        <ele>224.0</ele>
        <time>2014-02-11T12:55:18Z</time>
      </trkpt>
      <trkpt lat="43.535681" lon="1.458795">
        <ele>223.3</ele>
        <time>2014-02-11T12:55:48Z</time>
      </trkpt>
      <trkpt lat="43.535559" lon="1.458829">
        <ele>221.9</ele>
        <time>2014-02-11T12:56:04Z</time>
      </trkpt>
      <trkpt lat="43.535419" lon="1.458860">
        <ele>220.3</ele>
        <time>2014-02-11T12:56:22Z</time>
      </trkpt>
      <trkpt lat="43.535271" lon="1.458897">
        <ele>217.5</ele>
        <time>2014-02-11T12:56:43Z</time>
      </trkpt>
      <trkpt lat="43.535134" lon="1.458907">
        <ele>215.7</ele>
        <time>2014-02-11T12:56:59Z</time>
      </trkpt>
      <trkpt lat="43.535001" lon="1.458970">
        <ele>213.2</ele>
        <time>2014-02-11T12:57:15Z</time>
      </trkpt>
      <trkpt lat="43.534868" lon="1.459084">
        <ele>211.3</ele>
        <time>2014-02-11T12:57:32Z</time>
      </trkpt>
      <trkpt lat="43.534775" lon="1.459151">
        <ele>209.9</ele>
        <time>2014-02-11T12:57:49Z</time>
      </trkpt>
      <trkpt lat="43.534634" lon="1.459277">
        <ele>208.0</ele>
        <time>2014-02-11T12:58:08Z</time>
      </trkpt>
      <trkpt lat="43.534497" lon="1.459365">
        <ele>205.7</ele>
        <time>2014-02-11T12:58:23Z</time>
      </trkpt>
      <trkpt lat="43.534361" lon="1.459452">
        <ele>203.4</ele>
        <time>2014-02-11T12:58:41Z</time>
      </trkpt>
      <trkpt lat="43.534232" lon="1.459555">
        <ele>201.3</ele>
        <time>2014-02-11T12:58:59Z</time>
      </trkpt>
      <trkpt lat="43.534168" lon="1.459655">
        <ele>200.1</ele>
        <time>2014-02-11T12:59:37Z</time>
      </trkpt>
      <trkpt lat="43.534052" lon="1.459759">
        <ele>198.9</ele>
        <time>2014-02-11T12:59:54Z</time>
      </trkpt>
      <trkpt lat="43.533940" lon="1.459820">
        <ele>197.5</ele>
        <time>2014-02-11T13:00:34Z</time>
      </trkpt>
      <trkpt lat="43.533841" lon="1.459914">
        <ele>195.9</ele>
        <time>2014-02-11T13:00:52Z</time>
      </trkpt>
      <trkpt lat="43.533716" lon="1.460011">
        <ele>193.5</ele>
        <time>2014-02-11T13:01:12Z</time>
      </trkpt>
      <trkpt lat="43.533589" lon="1.460126">
        <ele>192.0</ele>
        <time>2014-02-11T13:01:29Z</time>
      </trkpt>
      <trkpt lat="43.533468" lon="1.460261">
        <ele>190.6</ele>
        <time>2014-02-11T13:01:45Z</time>
      </trkpt>
      <trkpt lat="43.533322" lon="1.460339">
        <ele>188.2</ele>
        <time>2014-02-11T13:02:05Z</time>
      </trkpt>
      <trkpt lat="43.533179" lon="1.460417">
        <ele>186.1</ele>
        <time>2014-02-11T13:02:25Z</time>
      </trkpt>
      <trkpt lat="43.533102" lon="1.460504">
        <ele>185.9</ele>
        <time>2014-02-11T13:03:58Z</time>
      </trkpt>
      <trkpt lat="43.533070" lon="1.460632">
        <ele>185.7</ele>
        <time>2014-02-11T13:04:14Z</time>
      </trkpt>
      <trkpt lat="43.533016" lon="1.460909">
        <ele>186.0</ele>
        <time>2014-02-11T13:04:32Z</time>
      </trkpt>
      <trkpt lat="43.532951" lon="1.461039">
        <ele>185.3</ele>
        <time>2014-02-11T13:04:45Z</time>
      </trkpt>
      <trkpt lat="43.532868" lon="1.461167">
        <ele>184.2</ele>
        <time>2014-02-11T13:05:00Z</time>
      </trkpt>
      <trkpt lat="43.532808" lon="1.461141">
        <ele>183.8</ele>
        <time>2014-02-11T13:05:21Z</time>
        <name>Coustalas</name>
      </trkpt>
      <trkpt lat="43.532837" lon="1.461001">
        <ele>184.0</ele>
        <time>2014-02-11T13:05:36Z</time>
      </trkpt>
      <trkpt lat="43.532861" lon="1.460837">
        <ele>184.0</ele>
        <time>2014-02-11T13:05:49Z</time>
      </trkpt>
      <trkpt lat="43.532894" lon="1.460709">
        <ele>184.0</ele>
        <time>2014-02-11T13:06:02Z</time>
      </trkpt>
      <trkpt lat="43.532911" lon="1.460578">
        <ele>184.1</ele>
        <time>2014-02-11T13:06:13Z</time>
      </trkpt>
      <trkpt lat="43.532924" lon="1.460440">
        <ele>183.9</ele>
        <time>2014-02-11T13:06:24Z</time>
      </trkpt>
      <trkpt lat="43.532963" lon="1.460322">
        <ele>183.6</ele>
        <time>2014-02-11T13:06:34Z</time>
      </trkpt>
      <trkpt lat="43.533002" lon="1.460201">
        <ele>183.4</ele>
        <time>2014-02-11T13:06:45Z</time>
      </trkpt>
      <trkpt lat="43.533043" lon="1.460058">
        <ele>183.2</ele>
        <time>2014-02-11T13:06:59Z</time>
      </trkpt>
      <trkpt lat="43.533098" lon="1.459923">
        <ele>182.8</ele>
        <time>2014-02-11T13:07:14Z</time>
      </trkpt>
      <trkpt lat="43.533143" lon="1.459785">
        <ele>182.9</ele>
        <time>2014-02-11T13:07:27Z</time>
      </trkpt>
      <trkpt lat="43.533190" lon="1.459655">
        <ele>182.6</ele>
        <time>2014-02-11T13:07:38Z</time>
      </trkpt>
      <trkpt lat="43.533250" lon="1.459548">
        <ele>182.5</ele>
        <time>2014-02-11T13:07:48Z</time>
      </trkpt>
      <trkpt lat="43.533288" lon="1.459436">
        <ele>182.9</ele>
        <time>2014-02-11T13:07:59Z</time>
      </trkpt>
      <trkpt lat="43.533338" lon="1.459295">
        <ele>183.4</ele>
        <time>2014-02-11T13:08:12Z</time>
      </trkpt>
      <trkpt lat="43.533403" lon="1.459210">
        <ele>183.1</ele>
        <time>2014-02-11T13:08:27Z</time>
      </trkpt>
      <trkpt lat="43.533504" lon="1.459297">
        <ele>185.1</ele>
        <time>2014-02-11T13:08:48Z</time>
      </trkpt>
      <trkpt lat="43.533608" lon="1.459379">
        <ele>187.5</ele>
        <time>2014-02-11T13:09:07Z</time>
      </trkpt>
      <trkpt lat="43.533706" lon="1.459438">
        <ele>189.7</ele>
        <time>2014-02-11T13:09:21Z</time>
      </trkpt>
      <trkpt lat="43.533794" lon="1.459510">
        <ele>192.1</ele>
        <time>2014-02-11T13:09:39Z</time>
      </trkpt>
      <trkpt lat="43.533871" lon="1.459529">
        <ele>194.9</ele>
        <time>2014-02-11T13:10:10Z</time>
      </trkpt>
      <trkpt lat="43.533919" lon="1.459444">
        <ele>195.6</ele>
        <time>2014-02-11T13:10:55Z</time>
      </trkpt>
      <trkpt lat="43.533983" lon="1.459317">
        <ele>195.9</ele>
        <time>2014-02-11T13:11:06Z</time>
      </trkpt>
      <trkpt lat="43.534044" lon="1.459208">
        <ele>196.1</ele>
        <time>2014-02-11T13:11:16Z</time>
      </trkpt>
      <trkpt lat="43.534107" lon="1.459097">
        <ele>196.3</ele>
        <time>2014-02-11T13:11:27Z</time>
      </trkpt>
      <trkpt lat="43.534141" lon="1.459014">
        <ele>196.8</ele>
        <time>2014-02-11T13:12:03Z</time>
      </trkpt>
      <trkpt lat="43.534124" lon="1.458879">
        <ele>195.8</ele>
        <time>2014-02-11T13:12:22Z</time>
      </trkpt>
      <trkpt lat="43.534195" lon="1.458740">
        <ele>195.2</ele>
        <time>2014-02-11T13:12:40Z</time>
      </trkpt>
      <trkpt lat="43.534283" lon="1.458609">
        <ele>195.7</ele>
        <time>2014-02-11T13:12:57Z</time>
      </trkpt>
      <trkpt lat="43.534389" lon="1.458548">
        <ele>197.0</ele>
        <time>2014-02-11T13:13:18Z</time>
      </trkpt>
      <trkpt lat="43.534478" lon="1.458438">
        <ele>198.3</ele>
        <time>2014-02-11T13:13:35Z</time>
      </trkpt>
      <trkpt lat="43.534546" lon="1.458340">
        <ele>198.9</ele>
        <time>2014-02-11T13:13:49Z</time>
      </trkpt>
      <trkpt lat="43.534606" lon="1.458194">
        <ele>198.7</ele>
        <time>2014-02-11T13:14:06Z</time>
      </trkpt>
      <trkpt lat="43.534603" lon="1.457974">
        <ele>197.3</ele>
        <time>2014-02-11T13:14:21Z</time>
      </trkpt>
      <trkpt lat="43.534600" lon="1.457827">
        <ele>195.9</ele>
        <time>2014-02-11T13:14:35Z</time>
      </trkpt>
      <trkpt lat="43.534641" lon="1.457684">
        <ele>195.0</ele>
        <time>2014-02-11T13:14:50Z</time>
      </trkpt>
      <trkpt lat="43.534719" lon="1.457565">
        <ele>194.8</ele>
        <time>2014-02-11T13:15:05Z</time>
      </trkpt>
      <trkpt lat="43.534804" lon="1.457450">
        <ele>194.5</ele>
        <time>2014-02-11T13:15:23Z</time>
      </trkpt>
      <trkpt lat="43.534862" lon="1.457310">
        <ele>195.0</ele>
        <time>2014-02-11T13:15:37Z</time>
      </trkpt>
      <trkpt lat="43.534837" lon="1.457183">
        <ele>194.7</ele>
        <time>2014-02-11T13:15:50Z</time>
      </trkpt>
      <trkpt lat="43.534757" lon="1.457112">
        <ele>192.6</ele>
        <time>2014-02-11T13:16:04Z</time>
      </trkpt>
      <trkpt lat="43.534694" lon="1.456976">
        <ele>189.6</ele>
        <time>2014-02-11T13:16:24Z</time>
      </trkpt>
      <trkpt lat="43.534616" lon="1.456848">
        <ele>187.5</ele>
        <time>2014-02-11T13:16:41Z</time>
      </trkpt>
      <trkpt lat="43.534563" lon="1.456705">
        <ele>185.6</ele>
        <time>2014-02-11T13:17:00Z</time>
      </trkpt>
      <trkpt lat="43.534581" lon="1.456639">
        <ele>185.0</ele>
        <time>2014-02-11T13:17:21Z</time>
      </trkpt>
      <trkpt lat="43.534688" lon="1.456541">
        <ele>186.0</ele>
        <time>2014-02-11T13:17:36Z</time>
      </trkpt>
      <trkpt lat="43.534768" lon="1.456446">
        <ele>186.7</ele>
        <time>2014-02-11T13:17:50Z</time>
      </trkpt>
      <trkpt lat="43.534861" lon="1.456326">
        <ele>186.6</ele>
        <time>2014-02-11T13:18:07Z</time>
      </trkpt>
      <trkpt lat="43.534915" lon="1.456245">
        <ele>186.2</ele>
        <time>2014-02-11T13:18:56Z</time>
      </trkpt>
      <trkpt lat="43.534998" lon="1.456148">
        <ele>185.6</ele>
        <time>2014-02-11T13:19:11Z</time>
      </trkpt>
      <trkpt lat="43.535103" lon="1.456008">
        <ele>185.1</ele>
        <time>2014-02-11T13:19:29Z</time>
      </trkpt>
      <trkpt lat="43.535201" lon="1.455880">
        <ele>185.2</ele>
        <time>2014-02-11T13:19:47Z</time>
      </trkpt>
      <trkpt lat="43.535281" lon="1.455767">
        <ele>186.0</ele>
        <time>2014-02-11T13:20:04Z</time>
      </trkpt>
      <trkpt lat="43.535380" lon="1.455666">
        <ele>186.8</ele>
        <time>2014-02-11T13:20:21Z</time>
      </trkpt>
      <trkpt lat="43.535426" lon="1.455658">
        <ele>187.6</ele>
        <time>2014-02-11T13:20:51Z</time>
      </trkpt>
      <trkpt lat="43.535459" lon="1.455548">
        <ele>189.0</ele>
        <time>2014-02-11T13:21:51Z</time>
      </trkpt>
      <trkpt lat="43.535567" lon="1.455623">
        <ele>189.7</ele>
        <time>2014-02-11T13:22:09Z</time>
      </trkpt>
      <trkpt lat="43.535669" lon="1.455700">
        <ele>192.0</ele>
        <time>2014-02-11T13:22:28Z</time>
      </trkpt>
      <trkpt lat="43.535774" lon="1.455698">
        <ele>194.5</ele>
        <time>2014-02-11T13:22:50Z</time>
      </trkpt>
      <trkpt lat="43.535888" lon="1.455626">
        <ele>196.5</ele>
        <time>2014-02-11T13:23:11Z</time>
      </trkpt>
      <trkpt lat="43.535930" lon="1.455476">
        <ele>196.1</ele>
        <time>2014-02-11T13:23:28Z</time>
      </trkpt>
      <trkpt lat="43.535932" lon="1.455334">
        <ele>195.4</ele>
        <time>2014-02-11T13:23:43Z</time>
      </trkpt>
      <trkpt lat="43.536020" lon="1.455227">
        <ele>195.0</ele>
        <time>2014-02-11T13:23:59Z</time>
      </trkpt>
      <trkpt lat="43.536154" lon="1.455197">
        <ele>195.8</ele>
        <time>2014-02-11T13:24:18Z</time>
      </trkpt>
      <trkpt lat="43.536285" lon="1.455217">
        <ele>197.2</ele>
        <time>2014-02-11T13:24:35Z</time>
      </trkpt>
      <trkpt lat="43.536382" lon="1.455169">
        <ele>199.0</ele>
        <time>2014-02-11T13:24:52Z</time>
      </trkpt>
      <trkpt lat="43.536487" lon="1.455185">
        <ele>200.7</ele>
        <time>2014-02-11T13:25:12Z</time>
      </trkpt>
      <trkpt lat="43.536612" lon="1.455220">
        <ele>203.2</ele>
        <time>2014-02-11T13:25:33Z</time>
      </trkpt>
      <trkpt lat="43.536703" lon="1.455208">
        <ele>205.2</ele>
        <time>2014-02-11T13:26:02Z</time>
      </trkpt>
      <trkpt lat="43.536758" lon="1.455259">
        <ele>207.4</ele>
        <time>2014-02-11T13:29:50Z</time>
      </trkpt>
      <trkpt lat="43.536811" lon="1.455242">
        <ele>207.9</ele>
        <time>2014-02-11T13:30:37Z</time>
      </trkpt>
      <trkpt lat="43.536875" lon="1.455149">
        <ele>208.8</ele>
        <time>2014-02-11T13:30:51Z</time>
      </trkpt>
      <trkpt lat="43.536942" lon="1.455085">
        <ele>208.7</ele>
        <time>2014-02-11T13:31:28Z</time>
      </trkpt>
      <trkpt lat="43.537019" lon="1.454996">
        <ele>208.5</ele>
        <time>2014-02-11T13:31:40Z</time>
      </trkpt>
      <trkpt lat="43.537097" lon="1.454907">
        <ele>208.7</ele>
        <time>2014-02-11T13:31:52Z</time>
      </trkpt>
      <trkpt lat="43.537185" lon="1.454795">
        <ele>209.3</ele>
        <time>2014-02-11T13:32:03Z</time>
      </trkpt>
      <trkpt lat="43.537277" lon="1.454746">
        <ele>210.3</ele>
        <time>2014-02-11T13:32:16Z</time>
      </trkpt>
      <trkpt lat="43.537360" lon="1.454694">
        <ele>211.5</ele>
        <time>2014-02-11T13:32:28Z</time>
      </trkpt>
      <trkpt lat="43.537457" lon="1.454671">
        <ele>213.1</ele>
        <time>2014-02-11T13:32:41Z</time>
      </trkpt>
      <trkpt lat="43.537545" lon="1.454584">
        <ele>214.6</ele>
        <time>2014-02-11T13:32:54Z</time>
      </trkpt>
      <trkpt lat="43.537635" lon="1.454496">
        <ele>215.7</ele>
        <time>2014-02-11T13:33:06Z</time>
      </trkpt>
      <trkpt lat="43.537710" lon="1.454433">
        <ele>216.6</ele>
        <time>2014-02-11T13:33:18Z</time>
      </trkpt>
      <trkpt lat="43.537805" lon="1.454356">
        <ele>217.7</ele>
        <time>2014-02-11T13:33:32Z</time>
      </trkpt>
      <trkpt lat="43.537907" lon="1.454309">
        <ele>218.4</ele>
        <time>2014-02-11T13:33:46Z</time>
      </trkpt>
      <trkpt lat="43.537957" lon="1.454287">
        <ele>218.2</ele>
        <time>2014-02-11T13:34:48Z</time>
      </trkpt>
      <trkpt lat="43.538036" lon="1.454221">
        <ele>218.5</ele>
        <time>2014-02-11T13:34:59Z</time>
      </trkpt>
      <trkpt lat="43.538128" lon="1.454137">
        <ele>218.5</ele>
        <time>2014-02-11T13:35:13Z</time>
      </trkpt>
      <trkpt lat="43.538226" lon="1.454045">
        <ele>218.4</ele>
        <time>2014-02-11T13:35:28Z</time>
      </trkpt>
      <trkpt lat="43.538320" lon="1.454015">
        <ele>219.1</ele>
        <time>2014-02-11T13:35:57Z</time>
      </trkpt>
      <trkpt lat="43.538338" lon="1.453934">
        <ele>218.3</ele>
        <time>2014-02-11T13:36:14Z</time>
      </trkpt>
      <trkpt lat="43.538425" lon="1.453854">
        <ele>217.2</ele>
        <time>2014-02-11T13:36:32Z</time>
      </trkpt>
      <trkpt lat="43.538530" lon="1.453823">
        <ele>216.7</ele>
        <time>2014-02-11T13:36:48Z</time>
      </trkpt>
      <trkpt lat="43.538634" lon="1.453832">
        <ele>217.6</ele>
        <time>2014-02-11T13:37:08Z</time>
      </trkpt>
      <trkpt lat="43.538740" lon="1.453950">
        <ele>219.2</ele>
        <time>2014-02-11T13:37:29Z</time>
      </trkpt>
      <trkpt lat="43.538722" lon="1.454094">
        <ele>221.5</ele>
        <time>2014-02-11T13:37:48Z</time>
      </trkpt>
      <trkpt lat="43.538786" lon="1.454237">
        <ele>224.4</ele>
        <time>2014-02-11T13:38:10Z</time>
      </trkpt>
      <trkpt lat="43.538842" lon="1.454344">
        <ele>227.1</ele>
        <time>2014-02-11T13:38:32Z</time>
      </trkpt>
      <trkpt lat="43.538947" lon="1.454416">
        <ele>229.4</ele>
        <time>2014-02-11T13:38:53Z</time>
      </trkpt>
      <trkpt lat="43.539018" lon="1.454508">
        <ele>232.3</ele>
        <time>2014-02-11T13:39:16Z</time>
      </trkpt>
      <trkpt lat="43.539089" lon="1.454522">
        <ele>235.0</ele>
        <time>2014-02-11T13:39:38Z</time>
      </trkpt>
      <trkpt lat="43.539134" lon="1.454603">
        <ele>237.2</ele>
        <time>2014-02-11T13:40:03Z</time>
      </trkpt>
      <trkpt lat="43.539126" lon="1.454748">
        <ele>239.2</ele>
        <time>2014-02-11T13:40:25Z</time>
      </trkpt>
      <trkpt lat="43.539135" lon="1.454876">
        <ele>241.8</ele>
        <time>2014-02-11T13:40:48Z</time>
      </trkpt>
      <trkpt lat="43.539189" lon="1.454932">
        <ele>243.3</ele>
        <time>2014-02-11T13:41:06Z</time>
      </trkpt>
      <trkpt lat="43.539303" lon="1.454888">
        <ele>245.3</ele>
        <time>2014-02-11T13:41:24Z</time>
      </trkpt>
      <trkpt lat="43.539403" lon="1.454852">
        <ele>247.1</ele>
        <time>2014-02-11T13:41:42Z</time>
      </trkpt>
      <trkpt lat="43.539499" lon="1.454863">
        <ele>248.7</ele>
        <time>2014-02-11T13:41:58Z</time>
      </trkpt>
      <trkpt lat="43.539602" lon="1.454909">
        <ele>252.6</ele>
        <time>2014-02-11T13:44:44Z</time>
      </trkpt>
      <trkpt lat="43.539705" lon="1.454866">
        <ele>253.7</ele>
        <time>2014-02-11T13:44:59Z</time>
      </trkpt>
      <trkpt lat="43.539815" lon="1.454805">
        <ele>254.7</ele>
        <time>2014-02-11T13:45:13Z</time>
      </trkpt>
      <trkpt lat="43.539907" lon="1.454788">
        <ele>255.8</ele>
        <time>2014-02-11T13:45:27Z</time>
      </trkpt>
      <trkpt lat="43.540017" lon="1.454811">
        <ele>257.2</ele>
        <time>2014-02-11T13:46:42Z</time>
      </trkpt>
      <trkpt lat="43.540027" lon="1.454884">
        <ele>258.4</ele>
        <time>2014-02-11T13:46:58Z</time>
      </trkpt>
      <trkpt lat="43.539935" lon="1.454968">
        <ele>259.1</ele>
        <time>2014-02-11T13:47:12Z</time>
      </trkpt>
      <trkpt lat="43.539843" lon="1.455049">
        <ele>259.0</ele>
        <time>2014-02-11T13:47:25Z</time>
      </trkpt>
      <trkpt lat="43.539766" lon="1.455127">
        <ele>258.8</ele>
        <time>2014-02-11T13:48:41Z</time>
      </trkpt>
      <trkpt lat="43.539668" lon="1.455202">
        <ele>258.7</ele>
        <time>2014-02-11T13:48:52Z</time>
      </trkpt>
      <trkpt lat="43.539581" lon="1.455263">
        <ele>258.6</ele>
        <time>2014-02-11T13:49:11Z</time>
      </trkpt>
      <trkpt lat="43.539538" lon="1.455272">
        <ele>258.3</ele>
        <time>2014-02-11T13:49:49Z</time>
      </trkpt>
      <trkpt lat="43.539509" lon="1.455429">
        <ele>259.4</ele>
        <time>2014-02-11T13:51:34Z</time>
      </trkpt>
      <trkpt lat="43.539543" lon="1.455577">
        <ele>260.0</ele>
        <time>2014-02-11T13:51:49Z</time>
      </trkpt>
    </trkseg>
  </trk>
</gpx>

